createdAt,value
2023-03-07T00:00:35.197Z,48.02
2023-03-07T00:01:35.212Z,56.40
2023-03-07T00:02:35.237Z,44.96
2023-03-07T00:03:35.194Z,50.92
2023-03-07T00:04:35.185Z,41.89
2023-03-07T00:05:35.168Z,43.34
2023-03-07T00:06:35.160Z,46.25
2023-03-07T00:07:35.146Z,41.25
2023-03-07T00:08:35.149Z,41.89
2023-03-07T00:09:35.150Z,42.22
2023-03-07T00:10:35.784Z,42.38
2023-03-07T00:11:35.140Z,53.82
2023-03-07T00:12:35.117Z,46.08
2023-03-07T00:13:35.103Z,43.51
2023-03-07T00:14:35.098Z,42.54
2023-03-07T00:15:35.092Z,42.70
2023-03-07T00:16:35.079Z,44.47
2023-03-07T00:17:35.113Z,44.47
2023-03-07T00:18:35.067Z,51.40
2023-03-07T00:19:35.054Z,48.18
2023-03-07T00:20:35.040Z,48.66
2023-03-07T00:21:36.797Z,43.67
2023-03-07T00:22:35.041Z,45.28
2023-03-07T00:25:34.953Z,49.47
2023-03-07T00:26:34.947Z,49.31
2023-03-07T00:27:34.942Z,44.31
2023-03-07T00:28:34.933Z,42.70
2023-03-07T00:29:34.933Z,44.79
2023-03-07T00:30:34.918Z,43.02
2023-03-07T00:31:34.987Z,51.88
2023-03-07T00:32:34.965Z,41.73
2023-03-07T00:33:34.888Z,44.47
2023-03-07T00:34:34.890Z,46.89
2023-03-07T00:35:34.904Z,49.63
2023-03-07T00:36:34.875Z,43.99
2023-03-07T00:37:34.866Z,43.18
2023-03-07T00:38:34.848Z,44.63
2023-03-07T00:39:35.951Z,41.25
2023-03-07T00:40:35.950Z,47.86
2023-03-07T00:41:35.936Z,43.83
2023-03-07T00:42:35.936Z,41.73
2023-03-07T00:43:35.906Z,42.86
2023-03-07T00:44:36.898Z,41.09
2023-03-07T00:45:35.915Z,42.86
2023-03-07T00:46:35.894Z,44.63
2023-03-07T00:47:35.889Z,49.47
2023-03-07T00:48:35.867Z,41.25
2023-03-07T00:49:35.873Z,42.38
2023-03-07T00:50:35.871Z,43.51
2023-03-07T00:51:35.860Z,40.77
2023-03-07T00:52:35.845Z,40.44
2023-03-07T00:53:35.826Z,39.96
2023-03-07T00:54:35.827Z,43.02
2023-03-07T00:55:35.819Z,43.99
2023-03-07T00:56:35.818Z,48.66
2023-03-07T00:57:36.406Z,49.15
2023-03-07T00:58:35.798Z,42.38
2023-03-07T00:59:35.807Z,42.22
2023-03-07T01:00:35.870Z,40.44
2023-03-07T01:01:35.785Z,41.09
2023-03-07T01:02:35.757Z,44.47
2023-03-07T01:03:35.759Z,42.86
2023-03-07T01:04:35.848Z,46.41
2023-03-07T01:05:35.744Z,45.12
2023-03-07T01:06:35.724Z,43.18
2023-03-07T01:07:35.723Z,43.02
2023-03-07T01:08:35.705Z,42.38
2023-03-07T01:09:35.704Z,41.25
2023-03-07T01:10:35.689Z,39.96
2023-03-07T01:11:36.688Z,39.16
2023-03-07T01:12:36.335Z,44.63
2023-03-07T01:13:35.681Z,41.89
2023-03-07T01:14:35.667Z,43.02
2023-03-07T01:15:36.405Z,42.70
2023-03-07T01:16:35.689Z,42.70
2023-03-07T01:17:35.654Z,41.25
2023-03-07T01:18:35.840Z,40.77
2023-03-07T01:19:35.630Z,40.77
2023-03-07T01:20:35.616Z,42.70
2023-03-07T01:21:35.626Z,41.73
2023-03-07T01:22:35.598Z,40.44
2023-03-07T01:23:35.603Z,42.54
2023-03-07T01:24:35.629Z,41.25
2023-03-07T01:25:35.578Z,42.54
2023-03-07T01:26:35.581Z,44.31
2023-03-07T01:27:35.559Z,40.77
2023-03-07T01:28:35.560Z,51.72
2023-03-07T01:29:35.568Z,41.89
2023-03-07T01:30:35.542Z,42.86
2023-03-07T01:31:35.573Z,44.31
2023-03-07T01:32:35.522Z,42.54
2023-03-07T01:33:35.522Z,44.96
2023-03-07T01:34:35.501Z,50.92
2023-03-07T01:35:35.531Z,49.79
2023-03-07T01:36:35.578Z,41.41
2023-03-07T01:37:35.491Z,47.86
2023-03-07T01:38:35.477Z,47.05
2023-03-07T01:39:35.464Z,46.89
2023-03-07T01:40:35.459Z,49.15
2023-03-07T01:41:35.455Z,44.15
2023-03-07T01:42:35.453Z,44.96
2023-03-07T01:43:35.452Z,53.98
2023-03-07T01:44:35.437Z,53.33
2023-03-07T01:45:35.477Z,45.60
2023-03-07T01:46:35.421Z,43.99
2023-03-07T01:47:35.402Z,45.12
2023-03-07T01:48:35.396Z,44.47
2023-03-07T01:49:35.486Z,51.08
2023-03-07T01:50:35.388Z,44.31
2023-03-07T01:51:35.373Z,48.34
2023-03-07T01:52:35.434Z,44.31
2023-03-07T01:53:35.353Z,44.31
2023-03-07T01:54:35.340Z,44.47
2023-03-07T01:55:35.346Z,45.76
2023-03-07T01:56:35.327Z,47.37
2023-03-07T01:57:35.334Z,47.05
2023-03-07T01:58:35.311Z,53.50
2023-03-07T01:59:37.306Z,47.05
2023-03-07T02:00:35.311Z,44.31
2023-03-07T02:01:35.343Z,42.38
2023-03-07T02:02:35.312Z,43.67
2023-03-07T02:03:35.272Z,45.44
2023-03-07T02:04:35.354Z,56.56
2023-03-07T02:05:35.265Z,46.73
2023-03-07T02:06:35.256Z,49.31
2023-03-07T02:07:35.267Z,43.67
2023-03-07T02:08:35.240Z,43.83
2023-03-07T02:09:35.226Z,41.89
2023-03-07T02:10:35.263Z,41.25
2023-03-07T02:11:35.216Z,55.75
2023-03-07T02:12:35.221Z,54.30
2023-03-07T02:13:35.204Z,58.01
2023-03-07T02:14:35.190Z,53.33
2023-03-07T02:15:35.241Z,54.79
2023-03-07T02:16:35.172Z,41.57
2023-03-07T02:17:35.168Z,42.38
2023-03-07T02:18:35.163Z,43.67
2023-03-07T02:19:35.142Z,43.34
2023-03-07T02:20:35.152Z,42.70
2023-03-07T02:21:35.134Z,42.22
2023-03-07T02:22:35.138Z,42.70
2023-03-07T02:23:35.939Z,41.25
2023-03-07T02:24:35.106Z,45.12
2023-03-07T02:25:35.111Z,48.66
2023-03-07T02:26:35.108Z,44.79
2023-03-07T02:27:35.091Z,41.41
2023-03-07T02:28:35.092Z,42.22
2023-03-07T02:29:35.085Z,47.05
2023-03-07T02:30:35.081Z,42.22
2023-03-07T02:31:35.054Z,52.05
2023-03-07T02:32:35.112Z,42.22
2023-03-07T02:33:35.051Z,43.51
2023-03-07T02:34:35.045Z,48.66
2023-03-07T02:35:35.065Z,43.34
2023-03-07T02:36:35.039Z,42.38
2023-03-07T02:37:35.035Z,42.86
2023-03-07T02:38:35.009Z,51.40
2023-03-07T02:39:35.000Z,45.92
2023-03-07T02:40:36.927Z,50.43
2023-03-07T02:41:34.976Z,47.70
2023-03-07T02:42:34.982Z,47.05
2023-03-07T02:43:34.958Z,43.34
2023-03-07T02:44:34.968Z,41.25
2023-03-07T02:45:34.944Z,44.47
2023-03-07T02:46:34.981Z,41.25
2023-03-07T02:47:34.932Z,41.25
2023-03-07T02:48:35.935Z,41.89
2023-03-07T02:49:34.914Z,44.31
2023-03-07T02:50:34.912Z,49.47
2023-03-07T02:51:34.896Z,42.38
2023-03-07T02:52:34.897Z,42.06
2023-03-07T02:53:34.895Z,42.54
2023-03-07T02:54:34.874Z,42.54
2023-03-07T02:55:34.866Z,47.21
2023-03-07T02:56:34.863Z,47.53
2023-03-07T02:57:34.849Z,43.34
2023-03-07T02:58:34.843Z,42.86
2023-03-07T02:59:34.856Z,43.51
2023-03-07T03:00:34.834Z,42.70
2023-03-07T03:01:34.890Z,43.83
2023-03-07T03:02:34.826Z,43.34
2023-03-07T03:03:34.809Z,41.25
2023-03-07T03:04:34.861Z,41.57
2023-03-07T03:05:34.785Z,44.79
2023-03-07T03:06:34.797Z,43.18
2023-03-07T03:07:34.772Z,43.67
2023-03-07T03:08:34.777Z,43.18
2023-03-07T03:09:34.767Z,45.44
2023-03-07T03:10:34.754Z,47.70
2023-03-07T03:11:34.753Z,46.25
2023-03-07T03:12:34.746Z,47.05
2023-03-07T03:13:34.728Z,47.70
2023-03-07T03:14:34.733Z,50.60
2023-03-07T03:15:34.708Z,44.15
2023-03-07T03:16:34.709Z,44.79
2023-03-07T03:17:34.705Z,52.05
2023-03-07T03:18:34.687Z,43.83
2023-03-07T03:19:34.685Z,42.70
2023-03-07T03:20:34.682Z,42.54
2023-03-07T03:21:34.681Z,43.67
2023-03-07T03:22:34.664Z,51.72
2023-03-07T03:23:34.660Z,44.79
2023-03-07T03:24:34.642Z,43.18
2023-03-07T03:25:34.637Z,42.86
2023-03-07T03:26:34.641Z,42.70
2023-03-07T03:27:34.653Z,42.54
2023-03-07T03:28:34.609Z,43.51
2023-03-07T03:29:34.619Z,42.70
2023-03-07T03:30:34.587Z,43.99
2023-03-07T03:31:34.675Z,53.50
2023-03-07T03:32:34.598Z,49.95
2023-03-07T03:33:34.577Z,47.37
2023-03-07T03:34:34.574Z,53.01
2023-03-07T03:35:34.615Z,42.86
2023-03-07T03:36:34.563Z,44.96
2023-03-07T03:37:34.551Z,47.21
2023-03-07T03:38:34.551Z,54.30
2023-03-07T03:39:34.522Z,51.40
2023-03-07T03:40:34.512Z,52.37
2023-03-07T03:41:34.528Z,46.08
2023-03-07T03:42:34.519Z,46.57
2023-03-07T03:43:34.495Z,49.63
2023-03-07T03:44:34.489Z,53.98
2023-03-07T03:45:35.350Z,56.56
2023-03-07T03:46:34.520Z,49.63
2023-03-07T03:47:34.461Z,49.31
2023-03-07T03:48:34.445Z,49.31
2023-03-07T03:49:35.451Z,50.92
2023-03-07T03:50:34.436Z,53.01
2023-03-07T03:51:34.427Z,48.18
2023-03-07T03:52:35.926Z,47.05
2023-03-07T03:53:34.421Z,57.52
2023-03-07T03:54:34.400Z,47.86
2023-03-07T03:55:34.396Z,56.72
2023-03-07T03:56:34.395Z,49.31
2023-03-07T03:57:34.384Z,46.57
2023-03-07T03:58:34.366Z,47.53
2023-03-07T03:59:34.373Z,56.88
2023-03-07T04:00:34.357Z,57.52
2023-03-07T04:01:34.389Z,51.40
2023-03-07T04:02:34.431Z,54.46
2023-03-07T04:03:35.329Z,51.72
2023-03-07T04:04:34.327Z,46.41
2023-03-07T04:05:34.320Z,47.70
2023-03-07T04:06:34.307Z,51.88
2023-03-07T04:07:34.319Z,55.43
2023-03-07T04:08:34.314Z,48.82
2023-03-07T04:09:34.295Z,48.82
2023-03-07T04:10:34.279Z,56.88
2023-03-07T04:11:34.280Z,55.59
2023-03-07T04:12:34.272Z,50.92
2023-03-07T04:13:34.254Z,47.86
2023-03-07T04:14:34.247Z,55.91
2023-03-07T04:15:34.262Z,58.49
2023-03-07T04:16:34.316Z,53.98
2023-03-07T04:17:34.229Z,49.95
2023-03-07T04:18:34.232Z,55.43
2023-03-07T04:19:34.203Z,53.66
2023-03-07T04:20:34.190Z,55.43
2023-03-07T04:21:34.191Z,62.04
2023-03-07T04:22:34.196Z,54.62
2023-03-07T04:23:34.934Z,60.10
2023-03-07T04:24:34.167Z,49.31
2023-03-07T04:25:34.216Z,49.79
2023-03-07T04:26:34.158Z,56.88
2023-03-07T04:27:34.140Z,58.49
2023-03-07T04:28:34.125Z,59.78
2023-03-07T04:29:34.135Z,54.62
2023-03-07T04:30:34.926Z,57.85
2023-03-07T04:31:34.152Z,48.82
2023-03-07T04:32:34.120Z,52.85
2023-03-07T04:33:34.093Z,60.10
2023-03-07T04:34:34.088Z,59.46
2023-03-07T04:35:34.137Z,54.79
2023-03-07T04:36:34.067Z,58.33
2023-03-07T04:37:34.924Z,59.30
2023-03-07T04:38:34.052Z,58.97
2023-03-07T04:39:34.055Z,60.59
2023-03-07T04:40:34.046Z,50.11
2023-03-07T04:41:34.040Z,57.20
2023-03-07T04:42:34.034Z,54.30
2023-03-07T04:43:34.034Z,56.88
2023-03-07T04:44:34.013Z,58.01
2023-03-07T04:45:34.002Z,52.37
2023-03-07T04:46:33.994Z,55.59
2023-03-07T04:47:33.987Z,49.15
2023-03-07T04:48:33.984Z,60.59
2023-03-07T04:49:33.977Z,58.01
2023-03-07T04:50:33.977Z,53.82
2023-03-07T04:51:33.953Z,61.23
2023-03-07T04:52:33.948Z,61.07
2023-03-07T04:53:33.953Z,57.20
2023-03-07T04:54:33.934Z,56.88
2023-03-07T04:55:33.934Z,54.30
2023-03-07T04:56:33.920Z,53.17
2023-03-07T04:57:33.913Z,54.14
2023-03-07T04:58:33.939Z,52.05
2023-03-07T04:59:33.906Z,54.79
2023-03-07T05:00:33.900Z,60.59
2023-03-07T05:01:33.920Z,58.65
2023-03-07T05:02:33.866Z,56.72
2023-03-07T05:03:34.439Z,59.46
2023-03-07T05:04:33.876Z,59.62
2023-03-07T05:05:35.568Z,59.46
2023-03-07T05:06:33.852Z,62.52
2023-03-07T05:07:33.830Z,59.46
2023-03-07T05:08:35.431Z,55.59
2023-03-07T05:09:33.820Z,60.59
2023-03-07T05:10:33.830Z,56.88
2023-03-07T05:11:33.815Z,55.43
2023-03-07T05:12:33.805Z,61.23
2023-03-07T05:13:33.797Z,59.94
2023-03-07T05:14:33.808Z,56.40
2023-03-07T05:15:33.867Z,60.10
2023-03-07T05:16:33.765Z,54.95
2023-03-07T05:17:33.750Z,55.43
2023-03-07T05:18:34.412Z,61.71
2023-03-07T05:19:33.746Z,61.39
2023-03-07T05:20:33.740Z,62.20
2023-03-07T05:21:33.724Z,62.52
2023-03-07T05:22:33.719Z,58.97
2023-03-07T05:23:33.708Z,58.97
2023-03-07T05:24:33.699Z,64.13
2023-03-07T05:25:33.694Z,61.87
2023-03-07T05:26:33.690Z,60.91
2023-03-07T05:27:33.682Z,62.36
2023-03-07T05:28:33.691Z,60.26
2023-03-07T05:29:33.668Z,57.69
2023-03-07T05:30:34.369Z,62.84
2023-03-07T05:31:33.706Z,61.71
2023-03-07T05:32:33.693Z,61.07
2023-03-07T05:33:33.623Z,63.33
2023-03-07T05:34:33.636Z,61.23
2023-03-07T05:35:33.684Z,63.16
2023-03-07T05:36:33.649Z,64.61
2023-03-07T05:37:33.624Z,64.13
2023-03-07T05:38:33.606Z,61.55
2023-03-07T05:39:33.586Z,61.71
2023-03-07T05:40:33.602Z,59.94
2023-03-07T05:41:34.432Z,63.33
2023-03-07T05:42:33.565Z,61.07
2023-03-07T05:43:33.565Z,60.75
2023-03-07T05:46:40.675Z,64.45
2023-03-07T05:47:40.664Z,61.71
2023-03-07T05:48:40.678Z,62.04
2023-03-07T05:49:41.757Z,60.26
2023-03-07T05:52:52.224Z,62.20
2023-03-07T05:53:52.205Z,63.97
2023-03-07T05:54:52.201Z,63.33
2023-03-07T05:55:52.197Z,60.10
2023-03-07T05:56:52.208Z,53.82
2023-03-07T05:57:52.186Z,61.71
2023-03-07T05:58:52.174Z,60.26
2023-03-07T05:59:52.194Z,61.55
2023-03-07T06:00:52.170Z,60.75
2023-03-07T06:01:53.063Z,59.46
2023-03-07T06:02:52.220Z,62.20
2023-03-07T06:03:52.157Z,62.68
2023-03-07T06:04:52.145Z,60.91
2023-03-07T06:05:52.133Z,65.26
2023-03-07T06:06:52.111Z,62.20
2023-03-07T06:07:52.128Z,63.33
2023-03-07T06:08:52.107Z,63.33
2023-03-07T06:09:52.089Z,64.78
2023-03-07T06:10:52.102Z,61.55
2023-03-07T06:11:52.075Z,61.23
2023-03-07T06:12:52.066Z,61.55
2023-03-07T06:13:52.080Z,61.87
2023-03-07T06:14:52.056Z,63.65
2023-03-07T06:15:52.100Z,63.65
2023-03-07T06:16:52.035Z,62.36
2023-03-07T06:17:52.068Z,63.97
2023-03-07T06:18:52.029Z,64.13
2023-03-07T06:19:52.998Z,65.26
2023-03-07T06:20:52.000Z,62.52
2023-03-07T06:21:52.003Z,62.04
2023-03-07T06:22:52.574Z,61.39
2023-03-07T06:23:51.989Z,63.49
2023-03-07T06:24:55.490Z,65.10
2023-03-07T06:25:52.019Z,56.72
2023-03-07T06:26:52.582Z,61.23
2023-03-07T06:27:51.980Z,62.84
2023-03-07T06:28:55.514Z,62.20
2023-03-07T06:29:51.931Z,62.36
2023-03-07T06:30:51.988Z,68.16
2023-03-07T06:31:51.923Z,65.42
2023-03-07T06:32:51.925Z,62.20
2023-03-07T06:33:51.901Z,65.42
2023-03-07T06:34:51.905Z,63.65
2023-03-07T06:35:51.932Z,62.68
2023-03-07T06:36:51.892Z,65.10
2023-03-07T06:37:51.877Z,64.61
2023-03-07T06:38:51.860Z,64.61
2023-03-07T06:39:51.853Z,65.42
2023-03-07T06:40:51.837Z,65.26
2023-03-07T06:41:51.841Z,65.42
2023-03-07T06:42:51.830Z,66.06
2023-03-07T06:43:52.571Z,64.45
2023-03-07T06:44:51.810Z,62.04
2023-03-07T06:45:51.836Z,63.16
2023-03-07T06:46:51.811Z,62.68
2023-03-07T06:47:52.499Z,60.26
2023-03-07T06:48:53.496Z,63.65
2023-03-07T06:49:51.776Z,60.59
2023-03-07T06:50:51.780Z,60.10
2023-03-07T06:51:51.769Z,61.55
2023-03-07T06:52:51.766Z,62.52
2023-03-07T06:53:51.737Z,61.55
2023-03-07T06:54:51.735Z,59.78
2023-03-07T06:55:51.725Z,64.61
2023-03-07T06:56:52.578Z,64.61
2023-03-07T06:57:51.722Z,62.04
2023-03-07T06:58:51.711Z,62.20
2023-03-07T06:59:51.714Z,62.68
2023-03-07T07:00:51.685Z,63.65
2023-03-07T07:01:51.847Z,65.10
2023-03-07T07:02:51.772Z,65.42
2023-03-07T07:03:51.663Z,60.91
2023-03-07T07:04:53.579Z,62.68
2023-03-07T07:05:52.577Z,62.20
2023-03-07T07:06:51.633Z,64.94
2023-03-07T07:07:51.626Z,63.00
2023-03-07T07:08:52.507Z,58.01
2023-03-07T07:09:51.608Z,62.04
2023-03-07T07:10:51.614Z,59.62
2023-03-07T07:11:52.600Z,62.20
2023-03-07T07:12:51.587Z,60.91
2023-03-07T07:13:51.597Z,63.97
2023-03-07T07:14:51.602Z,62.68
2023-03-07T07:15:51.572Z,61.07
2023-03-07T07:16:51.602Z,62.04
2023-03-07T07:17:52.505Z,61.07
2023-03-07T07:18:51.549Z,63.65
2023-03-07T07:19:52.503Z,63.65
2023-03-07T07:20:51.538Z,65.10
2023-03-07T07:21:51.527Z,62.52
2023-03-07T07:22:53.505Z,60.91
2023-03-07T07:23:51.530Z,60.91
2023-03-07T07:24:51.515Z,60.75
2023-03-07T07:25:51.499Z,62.20
2023-03-07T07:26:51.485Z,64.61
2023-03-07T07:27:51.495Z,61.07
2023-03-07T07:28:51.469Z,64.29
2023-03-07T07:29:51.462Z,61.07
2023-03-07T07:30:51.455Z,65.58
2023-03-07T07:31:51.625Z,60.26
2023-03-07T07:32:51.512Z,63.81
2023-03-07T07:33:51.436Z,60.10
2023-03-07T07:34:51.427Z,61.39
2023-03-07T07:35:51.434Z,60.26
2023-03-07T07:36:51.463Z,59.94
2023-03-07T07:37:51.398Z,62.04
2023-03-07T07:38:51.385Z,62.04
2023-03-07T07:39:54.006Z,63.49
2023-03-07T07:40:51.379Z,60.26
2023-03-07T07:41:51.372Z,61.23
2023-03-07T07:42:51.362Z,62.20
2023-03-07T07:43:51.362Z,62.68
2023-03-07T07:44:53.011Z,56.72
2023-03-07T07:45:51.446Z,61.55
2023-03-07T07:46:54.015Z,62.36
2023-03-07T07:47:51.332Z,65.10
2023-03-07T07:48:51.315Z,58.49
2023-03-07T07:49:51.306Z,63.65
2023-03-07T07:50:51.306Z,60.75
2023-03-07T07:51:51.295Z,62.20
2023-03-07T07:52:51.289Z,62.20
2023-03-07T07:53:51.282Z,62.36
2023-03-07T07:54:51.278Z,62.84
2023-03-07T07:55:51.276Z,62.68
2023-03-07T07:56:51.253Z,62.68
2023-03-07T07:57:51.988Z,61.55
2023-03-07T07:58:51.241Z,62.52
2023-03-07T07:59:51.293Z,64.61
2023-03-07T08:00:51.265Z,60.59
2023-03-07T08:01:51.380Z,60.26
2023-03-07T08:02:51.442Z,62.04
2023-03-07T08:03:51.285Z,63.49
2023-03-07T08:04:51.184Z,62.52
2023-03-07T08:05:52.199Z,62.36
2023-03-07T08:06:51.178Z,61.07
2023-03-07T08:07:52.093Z,63.81
2023-03-07T08:08:51.187Z,60.10
2023-03-07T08:09:51.169Z,64.13
2023-03-07T08:10:51.158Z,61.23
2023-03-07T08:11:51.144Z,60.59
2023-03-07T08:12:53.093Z,59.78
2023-03-07T08:13:52.017Z,62.84
2023-03-07T08:14:52.092Z,60.42
2023-03-07T08:15:53.151Z,61.23
2023-03-07T08:16:51.101Z,63.49
2023-03-07T08:17:51.113Z,63.65
2023-03-07T08:18:53.030Z,64.13
2023-03-07T08:19:53.042Z,62.04
2023-03-07T08:20:51.075Z,66.06
2023-03-07T08:21:51.073Z,61.55
2023-03-07T08:22:51.978Z,61.87
2023-03-07T08:23:51.054Z,63.00
2023-03-07T08:24:51.049Z,61.87
2023-03-07T08:25:51.037Z,62.04
2023-03-07T08:26:51.025Z,60.91
2023-03-07T08:27:51.006Z,63.49
2023-03-07T08:28:51.007Z,62.20
2023-03-07T08:29:50.996Z,63.97
2023-03-07T08:30:51.067Z,64.61
2023-03-07T08:31:50.981Z,60.10
2023-03-07T08:32:51.593Z,63.65
2023-03-07T08:33:51.978Z,61.07
2023-03-07T08:34:50.955Z,59.62
2023-03-07T08:35:51.012Z,62.52
2023-03-07T08:36:50.939Z,65.10
2023-03-07T08:37:50.926Z,60.10
2023-03-07T08:38:50.940Z,63.16
2023-03-07T08:39:50.915Z,60.42
2023-03-07T08:40:50.920Z,61.23
2023-03-07T08:43:57.985Z,60.59
2023-03-07T08:44:59.083Z,62.04
2023-03-07T08:46:00.700Z,59.94
2023-03-07T08:47:00.094Z,64.45
2023-03-07T08:47:59.091Z,62.20
2023-03-07T08:48:59.062Z,63.97
2023-03-07T08:49:59.047Z,61.55
2023-03-07T08:50:59.028Z,61.71
2023-03-07T08:51:59.008Z,64.29
2023-03-07T08:52:59.005Z,64.13
2023-03-07T08:53:59.004Z,63.16
2023-03-07T08:54:58.999Z,60.75
2023-03-07T08:55:59.033Z,60.59
2023-03-07T08:56:58.977Z,60.42
2023-03-07T08:57:58.999Z,62.04
2023-03-07T08:59:00.738Z,62.04
2023-03-07T09:00:00.716Z,64.94
2023-03-07T09:00:58.956Z,60.75
2023-03-07T09:01:59.014Z,61.55
2023-03-07T09:02:58.922Z,63.65
2023-03-07T09:03:58.913Z,61.07
2023-03-07T09:04:58.990Z,63.97
2023-03-07T09:05:58.906Z,62.52
2023-03-07T09:07:01.226Z,62.04
2023-03-07T09:07:58.887Z,64.29
2023-03-07T09:08:58.880Z,60.59
2023-03-07T09:09:59.640Z,62.20
2023-03-07T09:11:00.737Z,60.59
2023-03-07T09:11:58.858Z,63.16
2023-03-07T09:12:58.859Z,60.91
2023-03-07T09:13:58.847Z,63.16
2023-03-07T09:14:58.861Z,62.36
2023-03-07T09:15:58.860Z,61.23
2023-03-07T09:16:58.805Z,61.23
2023-03-07T09:17:58.819Z,65.74
2023-03-07T09:18:58.799Z,61.55
2023-03-07T09:19:58.793Z,61.07
2023-03-07T09:20:59.648Z,60.59
2023-03-07T09:21:58.767Z,62.84
2023-03-07T09:22:58.777Z,63.81
2023-03-07T09:23:58.751Z,62.36
2023-03-07T09:24:58.750Z,62.04
2023-03-07T09:25:58.745Z,63.16
2023-03-07T09:26:59.648Z,63.81
2023-03-07T09:27:58.755Z,59.14
2023-03-07T09:28:58.713Z,59.94
2023-03-07T09:29:59.714Z,59.30
2023-03-07T09:30:58.709Z,61.55
2023-03-07T09:31:58.695Z,60.59
2023-03-07T09:32:58.701Z,64.13
2023-03-07T09:33:58.695Z,63.00
2023-03-07T09:34:58.699Z,62.04
2023-03-07T09:35:58.723Z,61.55
2023-03-07T09:36:58.700Z,60.26
2023-03-07T09:37:58.660Z,56.72
2023-03-07T09:38:58.642Z,62.04
2023-03-07T09:39:58.658Z,62.52
2023-03-07T09:40:58.638Z,62.52
2023-03-07T09:41:58.634Z,59.14
2023-03-07T09:42:58.610Z,60.75
2023-03-07T09:43:58.640Z,62.36
2023-03-07T09:44:58.589Z,59.94
2023-03-07T09:46:00.257Z,60.75
2023-03-07T09:47:00.155Z,60.59
2023-03-07T09:47:58.574Z,59.30
2023-03-07T09:48:58.568Z,62.52
2023-03-07T09:49:58.579Z,60.59
2023-03-07T09:51:01.897Z,60.10
2023-03-07T09:51:59.541Z,63.00
2023-03-07T09:52:58.531Z,62.52
2023-03-07T09:53:58.706Z,60.10
2023-03-07T09:54:58.577Z,62.20
2023-03-07T09:55:58.530Z,62.84
2023-03-07T09:56:58.834Z,60.75
2023-03-07T09:57:58.855Z,60.10
2023-03-07T09:58:58.745Z,63.16
2023-03-07T09:59:59.160Z,61.71
2023-03-07T10:00:58.483Z,61.71
2023-03-07T10:01:58.480Z,60.10
2023-03-07T10:02:58.458Z,61.39
2023-03-07T10:03:58.530Z,65.10
2023-03-07T10:04:58.449Z,63.16
2023-03-07T10:05:58.449Z,60.10
2023-03-07T10:06:58.647Z,61.23
2023-03-07T10:07:58.425Z,55.75
2023-03-07T10:08:58.422Z,61.07
2023-03-07T10:09:58.403Z,60.75
2023-03-07T10:10:58.409Z,57.52
2023-03-07T10:11:58.482Z,58.97
2023-03-07T10:12:58.389Z,59.78
2023-03-07T10:13:58.416Z,61.71
2023-03-07T10:14:58.377Z,59.94
2023-03-07T10:15:58.361Z,59.14
2023-03-07T10:16:58.444Z,58.65
2023-03-07T10:17:58.349Z,60.59
2023-03-07T10:18:58.333Z,61.87
2023-03-07T10:19:58.323Z,60.75
2023-03-07T10:20:58.329Z,62.04
2023-03-07T10:21:58.343Z,61.07
2023-03-07T10:22:58.308Z,64.78
2023-03-07T10:23:58.296Z,61.23
2023-03-07T10:24:58.292Z,61.07
2023-03-07T10:25:58.299Z,61.55
2023-03-07T10:26:58.266Z,63.65
2023-03-07T10:27:58.256Z,62.52
2023-03-07T10:28:58.256Z,64.61
2023-03-07T10:29:58.258Z,63.16
2023-03-07T10:30:58.241Z,62.68
2023-03-07T10:31:58.289Z,60.91
2023-03-07T10:32:58.221Z,62.04
2023-03-07T10:33:58.267Z,59.30
2023-03-07T10:34:58.211Z,60.59
2023-03-07T10:35:58.317Z,62.52
2023-03-07T10:37:08.471Z,61.39
2023-03-07T10:38:00.186Z,62.84
2023-03-07T10:38:59.174Z,59.46
2023-03-07T10:39:58.182Z,60.59
2023-03-07T10:40:58.163Z,60.75
2023-03-07T10:41:58.746Z,61.71
2023-03-07T10:42:58.137Z,60.91
2023-03-07T10:43:59.686Z,63.33
2023-03-07T10:44:58.146Z,59.62
2023-03-07T10:45:58.167Z,60.26
2023-03-07T10:46:58.169Z,61.87
2023-03-07T10:47:58.106Z,61.07
2023-03-07T10:48:58.092Z,61.23
2023-03-07T10:49:58.098Z,61.39
2023-03-07T10:50:58.099Z,61.23
2023-03-07T10:51:58.076Z,61.39
2023-03-07T10:52:58.075Z,62.20
2023-03-07T10:53:58.055Z,62.52
2023-03-07T10:54:58.057Z,61.07
2023-03-07T10:55:58.065Z,60.59
2023-03-07T10:56:58.089Z,61.55
2023-03-07T10:57:58.020Z,60.42
2023-03-07T10:58:59.012Z,61.07
2023-03-07T10:59:58.024Z,60.26
2023-03-07T11:00:58.043Z,59.30
2023-03-07T11:01:58.025Z,61.23
2023-03-07T11:02:57.987Z,64.61
2023-03-07T11:03:58.687Z,61.71
2023-03-07T11:04:59.099Z,60.26
2023-03-07T11:05:57.985Z,59.46
2023-03-07T11:06:57.970Z,61.23
2023-03-07T11:07:58.694Z,61.87
2023-03-07T11:08:58.862Z,58.81
2023-03-07T11:09:58.673Z,59.14
2023-03-07T11:10:57.916Z,59.62
2023-03-07T11:12:00.682Z,61.23
2023-03-07T11:12:59.765Z,61.23
2023-03-07T11:13:57.991Z,61.87
2023-03-07T11:14:57.950Z,61.07
2023-03-07T11:16:10.589Z,60.75
2023-03-07T11:16:59.877Z,60.91
2023-03-07T11:17:58.762Z,61.07
2023-03-07T11:18:57.847Z,64.61
2023-03-07T11:19:57.851Z,63.33
2023-03-07T11:20:57.836Z,60.75
2023-03-07T11:21:57.835Z,65.26
2023-03-07T11:22:57.817Z,64.61
2023-03-07T11:23:57.849Z,62.20
2023-03-07T11:24:57.812Z,60.26
2023-03-07T11:25:59.658Z,63.81
2023-03-07T11:26:57.784Z,61.87
2023-03-07T11:27:57.791Z,67.51
2023-03-07T11:28:57.770Z,63.49
2023-03-07T11:29:58.746Z,62.36
2023-03-07T11:30:57.774Z,60.42
2023-03-07T11:31:58.747Z,59.14
2023-03-07T11:32:58.685Z,60.10
2023-03-07T11:33:59.539Z,59.46
2023-03-07T11:34:58.759Z,63.49
2023-03-07T11:35:57.736Z,61.87
2023-03-07T11:36:57.712Z,63.16
2023-03-07T11:37:57.755Z,61.07
2023-03-07T11:38:57.696Z,62.20
2023-03-07T11:39:57.682Z,60.59
2023-03-07T11:40:57.695Z,60.26
2023-03-07T11:41:57.669Z,61.55
2023-03-07T11:42:57.679Z,60.10
2023-03-07T11:43:57.714Z,62.68
2023-03-07T11:44:57.649Z,60.91
2023-03-07T11:45:57.644Z,60.26
2023-03-07T11:46:57.647Z,60.91
2023-03-07T11:47:57.632Z,61.87
2023-03-07T11:48:57.628Z,63.97
2023-03-07T11:49:58.755Z,62.84
2023-03-07T11:50:58.247Z,63.81
2023-03-07T11:51:57.596Z,58.65
2023-03-07T11:52:58.276Z,61.39
2023-03-07T11:53:58.278Z,62.20
2023-03-07T11:54:57.618Z,62.36
2023-03-07T11:55:57.565Z,63.65
2023-03-07T11:56:57.575Z,65.74
2023-03-07T11:57:57.557Z,64.13
2023-03-07T11:58:57.581Z,61.55
2023-03-07T11:59:57.577Z,62.52
2023-03-07T12:00:57.529Z,63.33
2023-03-07T12:01:59.249Z,64.45
2023-03-07T12:02:57.612Z,65.26
2023-03-07T12:03:58.184Z,65.10
2023-03-07T12:04:57.717Z,63.65
2023-03-07T12:05:59.233Z,61.39
2023-03-07T12:06:57.570Z,64.29
2023-03-07T12:07:57.495Z,60.42
2023-03-07T12:08:57.458Z,62.04
2023-03-07T12:09:57.453Z,58.33
2023-03-07T12:10:57.504Z,61.55
2023-03-07T12:11:57.441Z,65.58
2023-03-07T12:12:57.430Z,61.55
2023-03-07T12:13:57.428Z,61.87
2023-03-07T12:14:57.412Z,63.33
2023-03-07T12:15:57.429Z,61.87
2023-03-07T12:16:57.407Z,61.23
2023-03-07T12:17:57.423Z,66.06
2023-03-07T12:18:57.390Z,65.42
2023-03-07T12:19:57.370Z,65.58
2023-03-07T12:20:57.377Z,67.35
2023-03-07T12:21:57.360Z,66.39
2023-03-07T12:22:58.201Z,59.30
2023-03-07T12:23:57.453Z,61.55
2023-03-07T12:24:57.346Z,60.10
2023-03-07T12:25:57.726Z,62.04
2023-03-07T12:26:57.327Z,59.46
2023-03-07T12:27:57.320Z,60.75
2023-03-07T12:28:57.306Z,58.17
2023-03-07T12:29:57.300Z,62.36
2023-03-07T12:30:57.302Z,62.04
2023-03-07T12:31:57.439Z,60.10
2023-03-07T12:32:57.427Z,62.52
2023-03-07T12:33:57.268Z,61.87
2023-03-07T12:34:57.256Z,60.59
2023-03-07T12:35:57.363Z,61.23
2023-03-07T12:36:57.249Z,64.13
2023-03-07T12:37:57.247Z,63.49
2023-03-07T12:38:57.256Z,63.81
2023-03-07T12:39:57.227Z,62.04
2023-03-07T12:40:58.201Z,60.26
2023-03-07T12:41:57.206Z,63.81
2023-03-07T12:42:57.202Z,61.71
2023-03-07T12:43:57.185Z,61.87
2023-03-07T12:44:57.242Z,60.75
2023-03-07T12:45:57.291Z,61.39
2023-03-07T12:46:57.199Z,60.75
2023-03-07T12:47:57.246Z,61.55
2023-03-07T12:48:57.137Z,60.10
2023-03-07T12:49:57.136Z,63.16
2023-03-07T12:50:57.121Z,59.94
2023-03-07T12:51:57.123Z,63.33
2023-03-07T12:52:57.129Z,64.13
2023-03-07T12:53:57.095Z,63.16
2023-03-07T12:54:57.096Z,58.97
2023-03-07T12:55:57.080Z,60.59
2023-03-07T12:56:57.080Z,62.36
2023-03-07T12:57:57.075Z,62.04
2023-03-07T12:58:57.055Z,62.04
2023-03-07T12:59:58.764Z,60.10
2023-03-07T13:00:58.130Z,63.33